To NAV CANADA Home Page Login to a new session Search on AWWS site Feedback and Comments Disclaimer Vers la page française équivalente Tips FAQ What's new on the site To the Forecasts and Observations / NOTAM section To "File a Flight Plan" website Publications and other links Update of the User's profile FIC Telephone Numbers My Weather Data Folder Route Weather Data Regional Weather Data Local Weather Data To the Forecasts and Observations / NOTAM section
Request Generated 05/29/2016 at 19:04:20 UTC . Weather information available at that time is displayed.

METAR/TAF

THUNDER BAY/ON    (show WxCam)

METAR CYQT 291900Z 00000KT 10SM -RA BKN005 OVC016 16/15 A2974 RMK
ST6SC2 SLP076 DENSITY ALT 1100FT=
SPECI CYQT 291831Z 04003KT 010V140 8SM -RA BKN005 OVC020 16/14 A2975
RMK ST6SC2 BR SLP077 DENSITY ALT 1000FT=
METAR CYQT 291800Z 06003KT 050V120 6SM -RA BR BKN003 OVC009 15/14
A2975 RMK ST6ST2 SLP078 DENSITY ALT 900FT=
SPECI CYQT 291736Z 08005KT 6SM -RA BKN003 OVC009 14/14 A2975 RMK
ST5ST3 SLP079 DENSITY ALT 900FT=
METAR CYQT 291700Z 08006KT 3SM -RA BR OVC003 14/13 A2974 RMK ST8
SLP077 DENSITY ALT 800FT=

TAF CYQT 291338Z 2914/3002 09005KT 11/2SM -RA -DZ BR VV004 TEMPO
2914/2918 6SM BR OVC006
FM291800 08006KT 3SM -SHRA -DZ BR OVC005 TEMPO 2918/2923 P6SM NSW
OVC008 PROB30 2918/2923 2SM TSRA BR OVC008CB
FM292300 28012KT P6SM BKN020 OVC080
RMK NXT FCST BY 292000Z=
Your time UTC time
Weather data provided by Environment Canada and NAV CANADA